Terminal Aerodrome Forecast
Issued by NWS Grand Forks, ND

Home | Current Version | Previous Version | Text Only | Print | Product List | Glossary Off
Versions: 1 2 3 4 5 6 7 8 9 10 11 12 13 14 15

000
FTUS43 KFGF 220500
TAFFAR
TAF
KFAR 220520Z 2206/2306 VRB06KT P6SM BKN025
      TEMPO 2206/2207 -RA BKN050
     FM220700 34015KT P6SM BKN080
     FM221500 34014KT P6SM SKC=

USA.gov is the U.S. government's official web portal to all federal, state and local government web resources and services.